Language selection

Features

My Weather Profile Weather Topics  | 

Bowie - southern half: Past 24 Hour Conditions

 

Sandspit Airport

02:00 AM PDT 16 October 2019
Disclaimer

This table is a summary of hourly weather conditions for the past 24 hours.
Please note that these observations might not always be representative of weather conditions over their associated marine area.

Date / Time
(PDT)
Wind(knots) Conditions Visibility(km) Pressure(kPa) Air tempC) Relative humidity(%) Dew pointC)
16 October 2019
2:00 SSE 16 gust 22 Mist 6 99.1 11 97 11
1:00 SSE 15 gust 23 Light Rain 15 99.1 12 96 11
0:00 SE 17 Light Rain 6 99.1 12 97 11
15 October 2019
23:00 SSE 21 gust 28 Light Rain 8 99.1 12 95 11
22:00 SE 23 Light Rain 8 99.1 12 93 11
21:00 SSE 16 gust 22 Cloudy 16 99.2 12 89 10
20:00 SSE 16 Mostly Cloudy 16 99.1 12 88 10
19:00 S 12 Mostly Cloudy 16 99.1 12 93 10
18:00 SSE 12 gust 17 Light Rain 8 99.1 12 92 11
17:00 SE 15 Cloudy 13 99.0 12 94 11
16:00 SE 18 gust 25 Light Rain 6 99.0 12 96 11
15:00 SE 16 gust 24 Light Rain 5 99.0 11 96 11
14:00 SE 23 gust 30 Mist 6 99.1 12 92 11
13:00 SE 25 gust 30 Mist 8 99.1 12 93 11
12:00 SE 18 gust 25 Sunny 11 99.2 12 93 11
11:00 SSE 7 Cloudy 16 99.3 12 96 12
10:00 S 3 Mostly Cloudy 16 99.2 10 96 10
9:00 calm Light Rain 10 99.2 10 96 10
8:00 NNE 4 Light Rain 3 99.3 10 97 10
7:00 SSE 20 gust 28 Light Rain 5 99.3 12 96 11
6:00 SSE 25 Light Rain 3 99.3 12 96 11
5:00 SSE 26 gust 35 Light Rain 13 99.4 12 96 11
4:00 SSE 29 gust 35 Light Rain 10 99.5 12 96 11
3:00 SE 26 gust 35 Light Rain 4 99.5 12 96 11
2:00 SSE 33 gust 40 Light Rain 6 99.5 12 96 11

Zoom-in to make a selection

Map of Pacific - North Coast marine weather areas Middle Nomad - 46004 South Nomad - 46036 Dixon Entrance Central - 46145 South Moresby - 46147 Nanakwa Shoal - 46181 North Hecate Strait - 46183 North Nomad - 46184 South Hecate Strait - 46185 West Sea Otter - 46204 West Dixon Entrance - 46205 East Dellwood - 46207 West Moresby - 46208 Sartine Island Cape St.James Kindakun Rocks Langara Island Masset Municipal Airport Rose Spit Sandspit Airport Bella Bella Airport Bella Coola Airport Bonilla Island Cathedral Point Cumshewa Island Grey Islet Holland Rock Lucy Islands Lightstation Prince Rupert Airport
Legend:
buoy Buoy
land station Land Station

Pacific - North Coast Area

Another Region

What we are doing

Date modified: